createdAt,value
2017-06-18T00:00:10.727Z,17.70
2017-06-18T00:02:38.274Z,17.80
2017-06-18T00:05:06.571Z,17.50
2017-06-18T00:07:34.100Z,17.50
2017-06-18T00:10:01.664Z,17.60
2017-06-18T00:12:29.970Z,17.70
2017-06-18T00:14:57.530Z,17.70
2017-06-18T00:17:25.059Z,17.70
2017-06-18T00:19:53.363Z,17.80
2017-06-18T00:22:20.924Z,17.80
2017-06-18T00:24:48.463Z,18.00
2017-06-18T00:27:16.802Z,18.00
2017-06-18T00:29:44.335Z,18.00
2017-06-18T00:32:11.870Z,18.10
2017-06-18T00:34:39.431Z,18.10
2017-06-18T00:37:06.972Z,18.00
2017-06-18T00:39:35.299Z,18.10
2017-06-18T00:42:02.835Z,18.00
2017-06-18T00:44:30.413Z,18.20
2017-06-18T00:46:57.955Z,18.10
2017-06-18T00:49:25.491Z,18.20
2017-06-18T00:51:53.050Z,18.20
2017-06-18T00:54:20.578Z,18.10
2017-06-18T00:56:48.135Z,18.10
2017-06-18T00:59:15.671Z,18.10
2017-06-18T01:01:43.238Z,18.10
2017-06-18T01:04:10.771Z,18.10
2017-06-18T01:06:38.307Z,18.00
2017-06-18T01:09:05.872Z,17.80
2017-06-18T01:11:34.171Z,17.70
2017-06-18T01:14:01.727Z,17.70
2017-06-18T01:16:29.262Z,17.50
2017-06-18T01:18:57.607Z,17.70
2017-06-18T01:21:25.135Z,17.70
2017-06-18T01:23:52.662Z,17.80
2017-06-18T01:26:20.990Z,17.90
2017-06-18T01:28:48.522Z,17.90
2017-06-18T01:31:16.086Z,17.90
2017-06-18T01:33:43.621Z,17.90
2017-06-18T01:36:11.962Z,17.80
2017-06-18T01:38:39.490Z,17.70
2017-06-18T01:41:07.020Z,17.70
2017-06-18T01:43:35.351Z,17.70
2017-06-18T01:46:02.887Z,17.70
2017-06-18T01:48:30.447Z,17.80
2017-06-18T01:50:57.985Z,17.90
2017-06-18T01:53:25.558Z,17.90
2017-06-18T01:55:53.090Z,18.00
2017-06-18T01:58:20.629Z,17.90
2017-06-18T02:00:48.186Z,17.90
2017-06-18T02:03:15.760Z,17.80
2017-06-18T02:05:43.323Z,17.80
2017-06-18T02:08:10.853Z,17.90
2017-06-18T02:10:38.419Z,17.90
2017-06-18T02:13:05.955Z,17.90
2017-06-18T02:15:33.487Z,17.80
2017-06-18T02:18:01.043Z,17.90
2017-06-18T02:20:28.580Z,18.00
2017-06-18T02:22:57.199Z,17.70
2017-06-18T02:25:24.740Z,17.70
2017-06-18T02:27:53.071Z,17.80
2017-06-18T02:30:20.598Z,17.80
2017-06-18T02:32:48.122Z,17.90
2017-06-18T02:35:16.455Z,17.70
2017-06-18T02:37:43.996Z,17.70
2017-06-18T02:40:11.553Z,17.70
2017-06-18T02:42:39.091Z,17.70
2017-06-18T02:45:07.426Z,17.70
2017-06-18T02:47:34.961Z,17.70
2017-06-18T02:50:02.490Z,17.70
2017-06-18T02:52:30.815Z,17.60
2017-06-18T02:54:58.351Z,17.60
2017-06-18T02:57:25.912Z,17.60
2017-06-18T02:59:53.456Z,17.60
2017-06-18T03:02:21.041Z,17.50
2017-06-18T03:04:48.571Z,17.40
2017-06-18T03:07:16.107Z,17.20
2017-06-18T03:09:44.431Z,17.00
2017-06-18T03:12:11.971Z,16.90
2017-06-18T03:14:39.527Z,16.80
2017-06-18T03:17:07.062Z,16.70
2017-06-18T03:19:34.626Z,16.80
2017-06-18T03:22:02.932Z,16.80
2017-06-18T03:24:30.464Z,16.80
2017-06-18T03:26:58.785Z,16.70
2017-06-18T03:29:26.326Z,16.70
2017-06-18T03:31:53.894Z,16.70
2017-06-18T03:34:21.418Z,16.70
2017-06-18T03:36:49.767Z,16.50
2017-06-18T03:39:17.295Z,16.50
2017-06-18T03:41:44.839Z,16.40
2017-06-18T03:44:12.402Z,16.50
2017-06-18T03:46:39.935Z,16.50
2017-06-18T03:49:08.257Z,16.70
2017-06-18T03:51:35.801Z,16.60
2017-06-18T03:54:03.394Z,16.70
2017-06-18T03:56:30.927Z,16.70
2017-06-18T03:58:58.570Z,16.80
2017-06-18T04:01:26.904Z,16.90
2017-06-18T04:03:54.445Z,16.80
2017-06-18T04:06:22.017Z,16.90
2017-06-18T04:08:49.561Z,17.00
2017-06-18T04:11:17.095Z,17.00
2017-06-18T04:13:44.655Z,17.10
2017-06-18T04:16:12.195Z,17.10
2017-06-18T04:18:40.535Z,16.90
2017-06-18T04:21:08.066Z,16.90
2017-06-18T04:23:35.599Z,16.90
2017-06-18T04:26:03.931Z,17.00
2017-06-18T04:28:31.463Z,17.00
2017-06-18T04:30:59.051Z,17.20
2017-06-18T04:33:26.591Z,17.20
2017-06-18T04:36:01.724Z,17.40
2017-06-18T04:38:36.896Z,17.40
2017-06-18T04:41:08.884Z,17.30
2017-06-18T04:43:41.297Z,16.90
2017-06-18T04:46:08.836Z,16.90
2017-06-18T04:48:36.393Z,16.90
2017-06-18T04:51:03.953Z,16.80
2017-06-18T04:53:32.256Z,16.90
2017-06-18T04:55:59.827Z,16.90
2017-06-18T04:58:27.363Z,17.00
2017-06-18T05:00:54.899Z,17.10
2017-06-18T05:03:23.223Z,17.50
2017-06-18T05:05:50.762Z,17.50
2017-06-18T05:08:18.337Z,17.50
2017-06-18T05:10:45.877Z,17.50
2017-06-18T05:13:13.409Z,17.70
2017-06-18T05:15:41.733Z,18.30
2017-06-18T05:18:09.263Z,18.30
2017-06-18T05:20:36.838Z,18.70
2017-06-18T05:23:04.387Z,18.30
2017-06-18T05:25:31.926Z,18.10
2017-06-18T05:28:00.306Z,18.30
2017-06-18T05:30:27.881Z,18.30
2017-06-18T05:32:55.487Z,18.50
2017-06-18T05:35:23.027Z,18.80
2017-06-18T05:37:50.559Z,18.80
2017-06-18T05:40:18.119Z,18.90
2017-06-18T05:42:45.667Z,18.90
2017-06-18T05:45:14.011Z,18.90
2017-06-18T05:47:41.582Z,18.90
2017-06-18T05:50:09.111Z,19.10
2017-06-18T05:52:36.687Z,19.20
2017-06-18T05:55:04.223Z,19.10
2017-06-18T05:57:31.790Z,19.10
2017-06-18T05:59:59.318Z,19.10
2017-06-18T06:02:26.867Z,19.30
2017-06-18T06:05:31.217Z,20.20
2017-06-18T06:07:58.751Z,19.90
2017-06-18T06:10:27.083Z,19.60
2017-06-18T06:12:54.614Z,19.60
2017-06-18T06:15:22.145Z,19.40
2017-06-18T06:17:50.467Z,19.80
2017-06-18T06:20:18.003Z,19.70
2017-06-18T06:22:45.582Z,19.90
2017-06-18T06:25:13.143Z,19.90
2017-06-18T06:27:40.682Z,20.10
2017-06-18T06:30:08.243Z,20.30
2017-06-18T06:32:35.778Z,20.60
2017-06-18T06:35:04.107Z,21.30
2017-06-18T06:37:31.643Z,21.20
2017-06-18T06:39:59.187Z,21.20
2017-06-18T06:42:26.746Z,20.90
2017-06-18T06:44:54.286Z,20.40
2017-06-18T06:47:21.856Z,20.30
2017-06-18T06:49:50.159Z,19.70
2017-06-18T06:52:17.704Z,19.70
2017-06-18T06:54:45.262Z,19.70
2017-06-18T06:57:12.802Z,19.70
2017-06-18T06:59:41.139Z,19.80
2017-06-18T07:02:08.667Z,19.80
2017-06-18T07:04:36.197Z,20.20
2017-06-18T07:07:03.758Z,20.20
2017-06-18T07:09:32.054Z,20.30
2017-06-18T07:12:00.387Z,20.40
2017-06-18T07:14:27.934Z,20.40
2017-06-18T07:16:55.479Z,20.20
2017-06-18T07:19:23.042Z,20.50
2017-06-18T07:21:50.578Z,20.70
2017-06-18T07:24:18.164Z,20.80
2017-06-18T07:26:45.703Z,20.90
2017-06-18T07:29:13.247Z,20.80
2017-06-18T07:31:41.579Z,21.40
2017-06-18T07:34:09.130Z,21.40
2017-06-18T07:36:36.702Z,21.40
2017-06-18T07:39:04.239Z,21.50
2017-06-18T07:41:31.775Z,21.40
2017-06-18T07:43:59.344Z,21.70
2017-06-18T07:46:26.887Z,21.40
2017-06-18T07:48:54.466Z,21.80
2017-06-18T07:51:22.010Z,21.90
2017-06-18T07:53:49.547Z,22.20
2017-06-18T07:56:17.866Z,21.90
2017-06-18T07:58:45.402Z,21.90
2017-06-18T08:01:13.742Z,22.80
2017-06-18T08:03:41.285Z,22.80
2017-06-18T08:06:08.815Z,22.30
2017-06-18T08:08:36.381Z,22.20
2017-06-18T08:11:03.919Z,22.50
2017-06-18T08:13:32.236Z,22.80
2017-06-18T08:15:59.766Z,22.80
2017-06-18T08:18:27.323Z,23.00
2017-06-18T08:20:54.862Z,22.80
2017-06-18T08:23:24.223Z,22.50
2017-06-18T08:25:52.922Z,22.40
2017-06-18T08:28:20.824Z,22.80
2017-06-18T08:30:50.472Z,23.50
2017-06-18T08:33:19.470Z,23.50
2017-06-18T08:35:47.777Z,23.40
2017-06-18T08:38:15.458Z,22.80
2017-06-18T08:40:43.759Z,23.50
2017-06-18T08:43:11.308Z,23.50
2017-06-18T08:45:39.607Z,23.20
2017-06-18T08:48:07.223Z,23.20
2017-06-18T08:50:34.807Z,23.50
2017-06-18T08:53:02.334Z,23.80
2017-06-18T08:55:29.891Z,24.30
2017-06-18T08:57:57.427Z,23.70
2017-06-18T09:00:24.999Z,23.60
2017-06-18T09:02:52.532Z,23.30
2017-06-18T09:05:20.071Z,23.30
2017-06-18T09:07:47.630Z,22.70
2017-06-18T09:10:15.172Z,22.60
2017-06-18T09:12:43.511Z,23.20
2017-06-18T09:15:11.048Z,23.20
2017-06-18T09:17:38.580Z,22.90
2017-06-18T09:20:06.906Z,23.30
2017-06-18T09:22:34.439Z,23.30
2017-06-18T09:25:02.013Z,23.70
2017-06-18T09:27:29.579Z,23.60
2017-06-18T09:29:57.105Z,23.10
2017-06-18T09:32:24.659Z,22.90
2017-06-18T09:34:52.197Z,23.50
2017-06-18T09:37:20.538Z,24.20
2017-06-18T09:39:48.076Z,24.10
2017-06-18T09:42:15.636Z,24.10
2017-06-18T09:44:43.194Z,24.30
2017-06-18T09:47:10.863Z,24.70
2017-06-18T09:49:38.462Z,24.10
2017-06-18T09:52:06.038Z,24.20
2017-06-18T09:54:33.583Z,24.80
2017-06-18T09:57:01.139Z,24.60
2017-06-18T10:02:02.706Z,25.10
2017-06-18T10:04:30.249Z,25.20
2017-06-18T10:06:57.783Z,24.70
2017-06-18T10:09:25.342Z,24.80
2017-06-18T10:11:52.866Z,24.30
2017-06-18T10:14:20.439Z,24.00
2017-06-18T10:16:47.972Z,24.30
2017-06-18T10:19:15.512Z,24.60
2017-06-18T10:21:48.722Z,24.70
2017-06-18T10:24:16.255Z,24.70
2017-06-18T10:26:43.878Z,24.10
2017-06-18T10:29:11.419Z,24.20
2017-06-18T10:31:39.724Z,24.80
2017-06-18T10:34:07.278Z,24.80
2017-06-18T10:36:34.811Z,24.50
2017-06-18T10:39:02.394Z,24.00
2017-06-18T10:41:29.927Z,24.20
2017-06-18T10:43:57.463Z,24.70
2017-06-18T10:46:25.019Z,24.70
2017-06-18T10:48:52.556Z,24.90
2017-06-18T10:51:20.127Z,24.40
2017-06-18T10:53:47.658Z,24.90
2017-06-18T10:56:15.191Z,24.90
2017-06-18T10:58:43.531Z,24.50
2017-06-18T11:01:11.064Z,24.50
2017-06-18T11:03:38.647Z,24.30
2017-06-18T11:06:06.174Z,24.00
2017-06-18T11:08:33.710Z,23.70
2017-06-18T11:11:02.023Z,24.60
2017-06-18T11:13:29.554Z,24.60
2017-06-18T11:15:57.875Z,24.60
2017-06-18T11:18:25.406Z,24.60
2017-06-18T11:20:52.947Z,24.40
2017-06-18T11:23:21.262Z,24.80
2017-06-18T11:25:48.783Z,24.80
2017-06-18T11:28:17.115Z,24.90
2017-06-18T11:30:44.646Z,24.90
2017-06-18T11:33:12.175Z,24.10
2017-06-18T11:35:40.496Z,24.20
2017-06-18T11:38:08.021Z,24.20
2017-06-18T11:40:36.340Z,24.30
2017-06-18T11:43:03.867Z,24.30
2017-06-18T11:45:31.398Z,24.90
2017-06-18T11:47:58.947Z,24.50
2017-06-18T11:50:26.463Z,25.10
2017-06-18T11:52:54.023Z,25.60
2017-06-18T11:55:21.552Z,25.60
2017-06-18T11:57:49.843Z,25.30
2017-06-18T12:00:17.395Z,25.20
2017-06-18T12:02:45.678Z,24.80
2017-06-18T12:05:13.243Z,24.80
2017-06-18T12:07:40.766Z,24.80
2017-06-18T12:10:08.291Z,24.70
2017-06-18T12:12:35.835Z,25.00
2017-06-18T12:15:03.370Z,24.90
2017-06-18T12:17:31.702Z,24.30
2017-06-18T12:19:59.218Z,24.30
2017-06-18T12:22:26.746Z,24.80
2017-06-18T12:24:54.294Z,24.70
2017-06-18T12:27:21.826Z,24.70
2017-06-18T12:29:49.394Z,25.30
2017-06-18T12:32:16.919Z,25.50
2017-06-18T12:34:44.451Z,25.80
2017-06-18T12:37:12.781Z,25.50
2017-06-18T12:39:40.319Z,25.50
2017-06-18T12:42:07.888Z,25.50
2017-06-18T12:44:35.415Z,25.30
2017-06-18T12:47:03.706Z,25.90
2017-06-18T12:49:31.254Z,25.90
2017-06-18T12:51:59.544Z,25.10
2017-06-18T12:54:27.111Z,25.10
2017-06-18T12:56:54.635Z,25.50
2017-06-18T12:59:22.933Z,26.10
2017-06-18T13:01:50.482Z,26.00
2017-06-18T13:04:24.434Z,26.30
2017-06-18T13:07:00.448Z,26.20
2017-06-18T13:09:34.051Z,26.30
2017-06-18T13:12:06.269Z,26.10
2017-06-18T13:14:40.565Z,26.10
2017-06-18T13:17:14.075Z,25.90
2017-06-18T13:19:49.496Z,25.70
2017-06-18T13:22:20.324Z,25.90
2017-06-18T13:24:58.827Z,26.00
2017-06-18T13:27:31.686Z,25.80
2017-06-18T13:30:05.629Z,25.70
2017-06-18T13:32:38.870Z,25.80
2017-06-18T13:35:11.355Z,25.70
2017-06-18T13:37:47.662Z,25.70
2017-06-18T13:40:16.059Z,26.20
2017-06-18T13:42:43.610Z,26.20
2017-06-18T13:45:15.931Z,26.30
2017-06-18T13:47:51.475Z,26.20
2017-06-18T13:50:27.918Z,26.20
2017-06-18T13:53:02.605Z,26.10
2017-06-18T13:55:57.454Z,26.10
2017-06-18T13:58:25.027Z,26.10
2017-06-18T14:00:52.555Z,26.10
2017-06-18T14:03:20.083Z,26.10
2017-06-18T14:05:47.638Z,26.20
2017-06-18T14:08:15.163Z,26.10
2017-06-18T14:10:42.735Z,26.10
2017-06-18T14:13:10.268Z,25.80
2017-06-18T14:15:38.091Z,25.90
2017-06-18T14:18:06.413Z,26.00
2017-06-18T14:20:33.936Z,26.00
2017-06-18T14:23:02.273Z,26.30
2017-06-18T14:25:30.152Z,26.30
2017-06-18T14:27:57.726Z,26.30
2017-06-18T14:30:25.271Z,26.30
2017-06-18T14:32:52.802Z,26.40
2017-06-18T14:35:20.364Z,26.80
2017-06-18T14:37:47.895Z,26.60
2017-06-18T14:40:15.547Z,26.70
2017-06-18T14:42:43.858Z,26.40
2017-06-18T14:45:11.388Z,26.40
2017-06-18T14:47:38.955Z,26.50
2017-06-18T14:50:06.478Z,26.50
2017-06-18T14:52:33.998Z,26.50
2017-06-18T14:55:01.555Z,26.60
2017-06-18T14:57:29.082Z,26.50
2017-06-18T14:59:56.650Z,26.40
2017-06-18T15:02:24.183Z,26.40
2017-06-18T15:04:52.471Z,26.10
2017-06-18T15:07:20.787Z,26.00
2017-06-18T15:09:48.314Z,26.00
2017-06-18T15:12:15.875Z,26.30
2017-06-18T15:14:43.399Z,26.50
2017-06-18T15:17:10.927Z,26.30
2017-06-18T15:19:38.480Z,26.20
2017-06-18T15:22:06.020Z,26.10
2017-06-18T15:24:33.546Z,26.30
2017-06-18T15:27:01.119Z,26.60
2017-06-18T15:29:29.415Z,26.30
2017-06-18T15:31:56.942Z,26.30
2017-06-18T15:34:24.485Z,26.40
2017-06-18T15:36:52.010Z,26.40
2017-06-18T15:39:19.568Z,26.30
2017-06-18T15:41:54.551Z,26.20
2017-06-18T15:44:31.966Z,26.10
2017-06-18T15:47:00.349Z,26.10
2017-06-18T15:49:27.910Z,26.10
2017-06-18T15:51:55.440Z,26.10
2017-06-18T15:54:25.692Z,26.10
2017-06-18T15:56:53.363Z,26.00
2017-06-18T15:59:20.889Z,26.00
2017-06-18T16:01:48.455Z,26.20
2017-06-18T16:04:16.742Z,25.80
2017-06-18T16:06:45.034Z,25.80
2017-06-18T16:09:12.587Z,25.80
2017-06-18T16:11:40.116Z,25.80
2017-06-18T16:14:07.687Z,25.70
2017-06-18T16:16:35.982Z,27.30
2017-06-18T16:19:03.507Z,27.30
2017-06-18T16:21:31.079Z,28.10
2017-06-18T16:23:59.370Z,29.30
2017-06-18T16:26:27.659Z,30.10
2017-06-18T16:28:55.206Z,30.10
2017-06-18T16:31:22.727Z,28.70
2017-06-18T16:33:50.274Z,29.60
2017-06-18T16:36:17.798Z,30.00
2017-06-18T16:38:45.343Z,30.40
2017-06-18T16:41:13.635Z,29.60
2017-06-18T16:43:41.194Z,29.60
2017-06-18T16:46:08.731Z,30.50
2017-06-18T16:48:37.029Z,30.90
2017-06-18T16:51:04.576Z,30.80
2017-06-18T16:53:32.867Z,30.30
2017-06-18T16:56:00.435Z,30.30
2017-06-18T16:58:27.966Z,30.90
2017-06-18T17:00:56.268Z,30.80
2017-06-18T17:03:23.823Z,30.80
2017-06-18T17:05:51.346Z,31.10
2017-06-18T17:08:18.875Z,31.40
2017-06-18T17:10:46.424Z,31.10
2017-06-18T17:13:13.946Z,31.10
2017-06-18T17:15:42.261Z,31.50
2017-06-18T17:18:09.791Z,31.50
2017-06-18T17:20:37.346Z,31.40
2017-06-18T17:23:05.640Z,30.60
2017-06-18T17:25:33.167Z,30.60
2017-06-18T17:28:01.477Z,30.20
2017-06-18T17:30:29.003Z,30.20
2017-06-18T17:32:56.558Z,30.00
2017-06-18T17:35:24.086Z,30.70
2017-06-18T17:37:51.606Z,30.30
2017-06-18T17:40:19.163Z,30.40
2017-06-18T17:42:46.686Z,30.30
2017-06-18T17:45:14.234Z,29.20
2017-06-18T17:47:41.751Z,28.20
2017-06-18T17:50:09.303Z,27.30
2017-06-18T17:52:36.835Z,26.70
2017-06-18T17:55:04.398Z,26.30
2017-06-18T17:57:32.702Z,25.30
2017-06-18T18:00:00.231Z,25.30
2017-06-18T18:02:27.783Z,24.90
2017-06-18T18:04:55.306Z,24.70
2017-06-18T18:07:22.874Z,24.50
2017-06-18T18:09:50.399Z,24.30
2017-06-18T18:12:17.930Z,24.20
2017-06-18T18:14:46.249Z,23.80
2017-06-18T18:17:13.775Z,23.80
2017-06-18T18:19:42.106Z,23.60
2017-06-18T18:22:09.631Z,23.60
2017-06-18T18:24:37.158Z,23.50
2017-06-18T18:27:04.711Z,23.50
2017-06-18T18:29:32.235Z,23.40
2017-06-18T18:31:59.803Z,23.40
2017-06-18T18:34:27.330Z,23.30
2017-06-18T18:36:54.859Z,23.20
2017-06-18T18:39:23.178Z,22.90
2017-06-18T18:41:50.699Z,22.90
2017-06-18T18:44:19.030Z,22.60
2017-06-18T18:46:46.566Z,22.60
2017-06-18T18:49:14.098Z,22.60
2017-06-18T18:51:42.681Z,22.40
2017-06-18T18:54:11.177Z,22.30
2017-06-18T18:56:38.768Z,22.30
2017-06-18T18:59:06.292Z,22.10
2017-06-18T19:01:34.578Z,22.10
2017-06-18T19:04:02.131Z,22.00
2017-06-18T19:06:29.659Z,22.00
2017-06-18T19:08:57.219Z,21.80
2017-06-18T19:11:24.750Z,21.80
2017-06-18T19:13:52.287Z,21.60
2017-06-18T19:16:19.850Z,21.50
2017-06-18T19:18:47.402Z,21.40
2017-06-18T19:21:14.971Z,21.30
2017-06-18T19:23:42.502Z,21.30
2017-06-18T19:26:10.793Z,21.10
2017-06-18T19:28:38.351Z,21.10
2017-06-18T19:31:05.883Z,21.00
2017-06-18T19:33:33.442Z,20.90
2017-06-18T19:36:00.979Z,20.90
2017-06-18T19:38:28.507Z,20.80
2017-06-18T19:40:56.063Z,20.60
2017-06-18T19:43:23.599Z,20.50
2017-06-18T19:45:51.935Z,20.50
2017-06-18T19:48:19.474Z,20.40
2017-06-18T19:50:47.008Z,20.40
2017-06-18T19:53:14.561Z,20.20
2017-06-18T19:55:42.086Z,20.00
2017-06-18T19:58:09.660Z,19.90
2017-06-18T20:00:37.957Z,19.50
2017-06-18T20:03:05.490Z,19.50
2017-06-18T20:05:33.039Z,19.30
2017-06-18T20:08:00.573Z,19.10
2017-06-18T20:10:28.143Z,19.10
2017-06-18T20:12:55.662Z,19.10
2017-06-18T20:15:23.191Z,19.10
2017-06-18T20:17:50.751Z,19.00
2017-06-18T20:20:18.283Z,19.10
2017-06-18T20:22:45.858Z,19.10
2017-06-18T20:25:13.395Z,19.10
2017-06-18T20:27:40.919Z,19.10
2017-06-18T20:30:08.474Z,19.10
2017-06-18T20:32:36.007Z,18.90
2017-06-18T20:35:03.579Z,19.00
2017-06-18T20:37:31.884Z,18.80
2017-06-18T20:39:59.414Z,18.70
2017-06-18T20:42:26.970Z,18.70
2017-06-18T20:44:55.268Z,18.60
2017-06-18T20:47:22.835Z,18.60
2017-06-18T20:49:50.363Z,18.60
2017-06-18T20:52:18.660Z,18.50
2017-06-18T20:54:46.211Z,18.50
2017-06-18T20:57:14.503Z,18.50
2017-06-18T20:59:42.067Z,18.50
2017-06-18T21:02:09.599Z,18.50
2017-06-18T21:04:37.127Z,18.50
2017-06-18T21:07:04.683Z,18.40
2017-06-18T21:09:32.215Z,18.50
2017-06-18T21:11:59.784Z,18.40
2017-06-18T21:14:27.321Z,18.40
2017-06-18T21:16:54.854Z,18.30
2017-06-18T21:19:23.178Z,18.20
2017-06-18T21:21:50.706Z,18.20
2017-06-18T21:24:19.039Z,18.10
2017-06-18T21:26:46.978Z,18.10
2017-06-18T21:29:14.508Z,18.10
2017-06-18T21:31:42.063Z,18.10
2017-06-18T21:34:10.359Z,18.10
2017-06-18T21:36:37.926Z,18.10
2017-06-18T21:39:05.462Z,18.00
2017-06-18T21:41:33.759Z,17.70
2017-06-18T21:44:01.311Z,17.70
2017-06-18T21:46:28.838Z,17.70
2017-06-18T21:48:56.416Z,17.70
2017-06-18T21:51:24.710Z,17.50
2017-06-18T21:53:52.246Z,17.50
2017-06-18T21:56:20.567Z,17.30
2017-06-18T21:58:48.087Z,17.30
2017-06-18T22:01:16.432Z,17.30
2017-06-18T22:03:43.964Z,17.30
2017-06-18T22:06:11.489Z,17.30
2017-06-18T22:08:39.046Z,17.40
2017-06-18T22:11:07.343Z,17.30
2017-06-18T22:13:34.924Z,17.30
2017-06-18T22:16:02.444Z,17.30
2017-06-18T22:18:30.743Z,17.40
2017-06-18T22:20:58.301Z,17.40
2017-06-18T22:23:25.836Z,17.40
2017-06-18T22:25:54.162Z,17.30
2017-06-18T22:28:21.716Z,17.20
2017-06-18T22:50:43.560Z,16.90
2017-06-18T22:53:11.120Z,16.80
2017-06-18T22:55:38.646Z,16.80
2017-06-18T22:58:06.171Z,16.70
2017-06-18T23:00:33.719Z,16.80
2017-06-18T23:03:01.250Z,16.80
2017-06-18T23:05:28.821Z,16.90
2017-06-18T23:07:56.356Z,16.90
2017-06-18T23:10:24.656Z,16.90
2017-06-18T23:12:52.210Z,16.90
2017-06-18T23:15:19.743Z,16.90
2017-06-18T23:17:48.066Z,16.90
2017-06-18T23:20:15.599Z,16.90
2017-06-18T23:22:43.119Z,16.90
2017-06-18T23:25:10.675Z,17.00
2017-06-18T23:27:38.199Z,17.00
2017-06-18T23:30:05.764Z,16.90
2017-06-18T23:32:33.298Z,16.90
2017-06-18T23:35:00.832Z,16.90
2017-06-18T23:37:28.391Z,16.90
2017-06-18T23:39:55.923Z,17.00
2017-06-18T23:42:23.489Z,16.90
2017-06-18T23:44:51.019Z,16.80
2017-06-18T23:47:18.546Z,16.80
2017-06-18T23:49:46.861Z,16.80
2017-06-18T23:52:14.394Z,16.80
2017-06-18T23:54:41.981Z,16.70
2017-06-18T23:57:09.514Z,16.60
2017-06-18T23:59:37.046Z,16.60
